Hua-yang, China
Current Conditions -  °F | °C
As of 3:00 AM on Thursday 18 Dec 2014 (Local Time) from ZUUU Reporting Station
Clear Clear  
Wind Chill:   Ceiling: Unl
Heat Index:   Visibility: 5mi
Dew Point:   Wind: 0mph
Humidity: 76%   Direction: NA
Pressure: 30.39"   Gusts: NA
Location:  30.5°N, 104.07°E
Report Text: ZUUU 171900Z 00000MPS 8000 NSC 05/01 Q1029 NOSIG
Loading
Personal Weather Stations






























Interactive Weather Map New forecast layout! Learn more

10-Day Weather Forecast

Advertisements
Track Severe Weather on mobile